createdAt,value
2023-02-17T00:04:11.893Z,6.15
2023-02-17T00:08:09.919Z,5.51
2023-02-17T00:12:07.894Z,6.55
2023-02-17T00:16:06.092Z,7.47
2023-02-17T00:20:03.800Z,7.89
2023-02-17T00:24:02.853Z,7.96
2023-02-17T00:28:00.938Z,7.83
2023-02-17T00:32:00.011Z,8.28
2023-02-17T00:35:57.839Z,9.09
2023-02-17T00:39:55.898Z,8.61
2023-02-17T00:43:53.892Z,6.90
2023-02-17T00:47:51.793Z,5.74
2023-02-17T00:51:49.747Z,4.91
2023-02-17T00:55:47.918Z,4.66
2023-02-17T00:59:45.910Z,6.35
2023-02-17T01:03:49.923Z,8.05
2023-02-17T01:07:48.801Z,8.99
2023-02-17T01:11:47.832Z,8.94
2023-02-17T01:15:45.842Z,7.14
2023-02-17T01:19:44.779Z,5.87
2023-02-17T01:23:42.754Z,6.00
2023-02-17T01:27:40.797Z,7.63
2023-02-17T01:31:41.867Z,8.51
2023-02-17T01:35:39.809Z,8.99
2023-02-17T01:39:37.710Z,8.70
2023-02-17T01:43:35.807Z,6.94
2023-02-17T01:47:33.687Z,5.77
2023-02-17T01:51:36.716Z,5.01
2023-02-17T01:55:36.675Z,5.79
2023-02-17T01:59:35.715Z,7.34
2023-02-17T02:03:33.705Z,8.21
2023-02-17T02:07:37.696Z,8.87
2023-02-17T02:11:35.677Z,9.33
2023-02-17T02:15:37.707Z,8.62
2023-02-17T02:19:38.691Z,6.96
2023-02-17T02:24:00.694Z,5.81
2023-02-17T02:28:32.770Z,5.80
2023-02-17T02:32:48.699Z,7.78
2023-02-17T02:36:52.631Z,8.61
2023-02-17T02:40:56.729Z,9.12
2023-02-17T02:44:54.692Z,9.13
2023-02-17T02:48:52.690Z,7.59
2023-02-17T02:53:14.672Z,6.34
2023-02-17T02:57:28.672Z,5.36
2023-02-17T03:01:57.604Z,5.04
2023-02-17T03:06:14.631Z,6.36
2023-02-17T03:10:14.572Z,7.38
2023-02-17T03:14:28.622Z,8.41
2023-02-17T03:18:26.580Z,9.42
2023-02-17T03:22:36.817Z,9.54
2023-02-17T03:26:34.594Z,7.70
2023-02-17T03:30:35.648Z,6.52
2023-02-17T03:34:33.696Z,5.63
2023-02-17T03:38:31.652Z,4.96
2023-02-17T03:42:30.526Z,4.47
2023-02-17T03:46:30.555Z,4.88
2023-02-17T03:50:28.523Z,7.04
2023-02-17T03:54:26.652Z,8.64
2023-02-17T03:58:24.632Z,9.61
2023-02-17T04:02:22.522Z,8.81
2023-02-17T04:06:21.533Z,7.23
2023-02-17T04:10:19.512Z,6.11
2023-02-17T04:14:17.485Z,5.35
2023-02-17T04:18:15.528Z,4.79
2023-02-17T04:22:15.485Z,4.99
2023-02-17T04:26:13.524Z,6.93
2023-02-17T04:30:12.427Z,8.12
2023-02-17T04:34:10.493Z,8.38
2023-02-17T04:38:08.518Z,8.87
2023-02-17T04:42:06.548Z,9.77
2023-02-17T04:46:04.982Z,8.41
2023-02-17T04:50:02.557Z,6.87
2023-02-17T04:54:00.460Z,5.80
2023-02-17T04:57:58.586Z,5.08
2023-02-17T05:01:56.442Z,5.36
2023-02-17T05:05:54.434Z,7.50
2023-02-17T05:09:53.411Z,8.78
2023-02-17T05:13:54.885Z,9.50
2023-02-17T05:17:52.394Z,8.40
2023-02-17T05:21:50.405Z,6.93
2023-02-17T05:25:48.420Z,5.91
2023-02-17T05:29:46.433Z,5.30
2023-02-17T05:33:44.365Z,6.24
2023-02-17T05:37:42.411Z,7.88
2023-02-17T05:41:40.360Z,8.32
2023-02-17T05:45:38.491Z,8.32
2023-02-17T05:49:36.423Z,8.19
2023-02-17T05:53:35.476Z,8.17
2023-02-17T05:57:33.363Z,8.34
2023-02-17T06:01:31.414Z,8.66
2023-02-17T06:05:29.407Z,8.33
2023-02-17T06:09:27.489Z,7.03
2023-02-17T06:13:25.404Z,6.02
2023-02-17T06:17:04.127Z,5.30
2023-02-17T06:20:28.385Z,5.16
2023-02-17T06:23:52.487Z,6.52
2023-02-17T06:27:16.385Z,8.05
2023-02-17T06:30:40.323Z,9.11
2023-02-17T06:34:06.453Z,9.69
2023-02-17T06:37:30.608Z,8.52
2023-02-17T06:40:55.602Z,7.26
2023-02-17T06:44:19.633Z,6.43
2023-02-17T06:47:43.608Z,5.84
2023-02-17T06:51:07.694Z,5.84
2023-02-17T06:54:31.763Z,7.68
2023-02-17T06:57:55.736Z,9.44
2023-02-17T07:01:22.814Z,9.94
2023-02-17T07:04:46.841Z,8.63
2023-02-17T07:08:10.885Z,7.32
2023-02-17T07:11:34.965Z,6.63
2023-02-17T07:14:59.058Z,6.33
2023-02-17T07:18:22.971Z,6.50
2023-02-17T07:21:47.322Z,8.47
2023-02-17T07:25:11.448Z,10.19
2023-02-17T07:28:35.843Z,10.14
2023-02-17T07:32:01.860Z,8.91
2023-02-17T07:35:26.217Z,7.94
2023-02-17T07:38:51.054Z,7.16
2023-02-17T07:42:15.414Z,6.66
2023-02-17T07:45:39.472Z,6.26
2023-02-17T07:49:04.193Z,5.96
2023-02-17T07:52:28.200Z,6.18
2023-02-17T07:55:54.941Z,8.18
2023-02-17T07:59:19.366Z,9.90
2023-02-17T08:02:43.472Z,10.23
2023-02-17T08:06:14.740Z,8.93
2023-02-17T08:09:56.482Z,7.86
2023-02-17T08:13:20.461Z,7.07
2023-02-17T08:16:44.595Z,6.61
2023-02-17T08:20:09.559Z,6.76
2023-02-17T08:23:35.341Z,8.58
2023-02-17T08:26:59.927Z,10.30
2023-02-17T08:30:23.802Z,10.56
2023-02-17T08:33:48.011Z,9.40
2023-02-17T08:37:12.521Z,8.43
2023-02-17T08:40:36.385Z,7.79
2023-02-17T08:44:03.125Z,7.26
2023-02-17T08:47:27.251Z,6.93
2023-02-17T08:50:51.237Z,7.46
2023-02-17T08:54:15.590Z,9.56
2023-02-17T08:57:39.575Z,11.01
2023-02-17T09:01:06.899Z,10.43
2023-02-17T09:04:31.206Z,9.41
2023-02-17T09:07:55.437Z,8.52
2023-02-17T09:11:21.039Z,8.03
2023-02-17T09:14:45.472Z,7.75
2023-02-17T09:18:09.584Z,7.51
2023-02-17T09:21:33.694Z,7.28
2023-02-17T09:24:57.703Z,7.20
2023-02-17T09:28:21.794Z,7.76
2023-02-17T09:31:46.577Z,9.96
2023-02-17T09:35:19.650Z,11.12
2023-02-17T09:38:44.689Z,10.27
2023-02-17T09:42:19.204Z,9.55
2023-02-17T09:45:47.906Z,8.89
2023-02-17T09:49:16.891Z,8.52
2023-02-17T09:52:54.634Z,8.37
2023-02-17T09:56:25.913Z,8.97
2023-02-17T09:59:56.962Z,10.93
2023-02-17T10:03:20.818Z,11.01
2023-02-17T10:06:49.862Z,10.14
2023-02-17T10:10:35.988Z,9.44
2023-02-17T10:14:08.859Z,8.99
2023-02-17T10:17:42.080Z,8.69
2023-02-17T10:21:13.012Z,8.41
2023-02-17T10:24:38.017Z,8.34
2023-02-17T10:28:10.342Z,8.33
2023-02-17T10:31:49.827Z,8.75
2023-02-17T10:35:28.687Z,10.74
2023-02-17T10:39:13.679Z,12.24
2023-02-17T10:42:40.284Z,11.43
2023-02-17T10:46:08.413Z,10.55
2023-02-17T10:49:48.095Z,9.97
2023-02-17T10:53:17.608Z,9.56
2023-02-17T10:56:55.619Z,9.40
2023-02-17T11:00:20.203Z,9.33
2023-02-17T11:03:44.512Z,9.23
2023-02-17T11:07:13.467Z,9.12
2023-02-17T11:10:42.196Z,9.05
2023-02-17T11:14:09.352Z,8.96
2023-02-17T11:17:40.529Z,8.94
2023-02-17T11:21:09.100Z,8.94
2023-02-17T11:24:36.141Z,8.97
2023-02-17T11:28:03.900Z,9.38
2023-02-17T11:31:31.257Z,11.33
2023-02-17T11:35:03.570Z,12.61
2023-02-17T11:38:34.531Z,11.79
2023-02-17T11:41:58.696Z,10.92
2023-02-17T11:45:24.753Z,10.37
2023-02-17T11:49:27.550Z,10.01
2023-02-17T11:52:51.604Z,9.72
2023-02-17T11:56:20.328Z,9.55
2023-02-17T11:59:53.104Z,9.46
2023-02-17T12:03:36.843Z,9.42
2023-02-17T12:07:38.694Z,10.82
2023-02-17T12:11:11.818Z,12.00
2023-02-17T12:14:53.908Z,11.12
2023-02-17T12:18:42.859Z,10.52
2023-02-17T12:22:17.798Z,10.11
2023-02-17T12:25:52.217Z,9.76
2023-02-17T12:29:41.549Z,9.94
2023-02-17T12:33:34.916Z,11.75
2023-02-17T12:37:00.966Z,12.58
2023-02-17T12:40:46.013Z,11.80
2023-02-17T12:44:42.765Z,10.98
2023-02-17T12:48:25.631Z,10.45
2023-02-17T12:51:55.421Z,10.37
2023-02-17T12:55:23.757Z,11.89
2023-02-17T12:58:48.967Z,13.19
2023-02-17T13:02:16.479Z,12.67
2023-02-17T13:05:51.265Z,11.64
2023-02-17T13:09:36.962Z,10.85
2023-02-17T13:13:08.656Z,10.58
2023-02-17T13:16:46.409Z,11.95
2023-02-17T13:20:14.152Z,12.56
2023-02-17T13:23:41.547Z,11.74
2023-02-17T13:27:12.036Z,10.80
2023-02-17T13:30:42.207Z,10.47
2023-02-17T13:34:10.409Z,11.64
2023-02-17T13:37:34.286Z,12.99
2023-02-17T13:41:04.591Z,13.18
2023-02-17T13:44:40.166Z,11.96
2023-02-17T13:48:18.758Z,10.90
2023-02-17T13:51:42.668Z,10.58
2023-02-17T13:55:07.612Z,11.64
2023-02-17T13:58:42.668Z,12.35
2023-02-17T14:02:35.130Z,12.49
2023-02-17T14:06:02.133Z,12.54
2023-02-17T14:09:29.606Z,11.75
2023-02-17T14:12:56.119Z,10.68
2023-02-17T14:16:38.148Z,10.20
2023-02-17T14:20:02.240Z,11.15
2023-02-17T14:23:26.387Z,12.45
2023-02-17T14:26:51.454Z,13.29
2023-02-17T14:30:51.020Z,13.42
2023-02-17T14:34:50.838Z,11.91
2023-02-17T14:38:51.692Z,10.86
2023-02-17T14:42:49.772Z,11.78
2023-02-17T14:46:47.775Z,12.80
2023-02-17T14:50:49.984Z,13.30
2023-02-17T14:54:48.663Z,13.81
2023-02-17T14:58:47.724Z,13.85
2023-02-17T15:02:45.714Z,12.07
2023-02-17T15:06:53.683Z,10.93
2023-02-17T15:10:51.794Z,12.08
2023-02-17T15:14:49.678Z,13.13
2023-02-17T15:18:47.673Z,13.52
2023-02-17T15:22:48.760Z,13.91
2023-02-17T15:26:47.614Z,14.02
2023-02-17T15:30:45.718Z,12.50
2023-02-17T15:34:48.674Z,11.59
2023-02-17T15:38:46.654Z,12.53
2023-02-17T15:42:44.636Z,13.31
2023-02-17T15:46:46.651Z,13.74
2023-02-17T15:50:44.682Z,13.99
2023-02-17T15:54:42.829Z,14.14
2023-02-17T15:58:40.639Z,12.83
2023-02-17T16:02:39.658Z,11.21
2023-02-17T16:06:38.570Z,11.69
2023-02-17T16:10:39.699Z,12.74
2023-02-17T16:14:50.578Z,13.36
2023-02-17T16:18:48.615Z,13.54
2023-02-17T16:22:46.593Z,13.80
2023-02-17T16:26:49.699Z,12.41
2023-02-17T16:30:49.703Z,10.99
2023-02-17T16:34:47.647Z,11.78
2023-02-17T16:38:45.567Z,12.78
2023-02-17T16:42:43.595Z,13.24
2023-02-17T16:46:50.570Z,13.41
2023-02-17T16:50:49.592Z,13.71
2023-02-17T16:54:47.577Z,13.27
2023-02-17T16:58:45.549Z,11.63
2023-02-17T17:02:43.558Z,11.02
2023-02-17T17:06:44.564Z,12.15
2023-02-17T17:10:47.525Z,13.14
2023-02-17T17:14:45.656Z,13.60
2023-02-17T17:18:43.578Z,13.77
2023-02-17T17:22:41.717Z,11.91
2023-02-17T17:26:47.499Z,11.60
2023-02-17T17:30:48.683Z,12.73
2023-02-17T17:34:46.515Z,13.29
2023-02-17T17:38:44.502Z,13.42
2023-02-17T17:42:44.516Z,13.47
2023-02-17T17:46:49.172Z,13.80
2023-02-17T17:50:47.541Z,13.95
2023-02-17T17:54:45.466Z,13.60
2023-02-17T17:58:45.454Z,11.78
2023-02-17T18:02:43.470Z,11.95
2023-02-17T18:06:53.435Z,12.70
2023-02-17T18:10:53.458Z,13.17
2023-02-17T18:14:53.412Z,13.53
2023-02-17T18:18:51.513Z,13.77
2023-02-17T18:22:49.388Z,13.74
2023-02-17T18:26:47.445Z,13.84
2023-02-17T18:30:45.515Z,13.85
2023-02-17T18:34:44.522Z,13.91
2023-02-17T18:38:42.426Z,13.99
2023-02-17T18:42:40.398Z,13.84
2023-02-17T18:46:39.443Z,13.92
2023-02-17T18:50:39.431Z,14.02
2023-02-17T18:54:38.356Z,13.84
2023-02-17T18:58:37.382Z,13.96
2023-02-17T19:02:35.538Z,13.95
2023-02-17T19:06:36.436Z,13.44
2023-02-17T19:10:34.455Z,12.11
2023-02-17T19:14:33.476Z,12.44
2023-02-17T19:18:31.396Z,12.93
2023-02-17T19:22:29.513Z,13.21
2023-02-17T19:26:30.414Z,13.64
2023-02-17T19:30:28.427Z,13.96
2023-02-17T19:34:26.302Z,14.35
2023-02-17T19:38:24.387Z,13.40
2023-02-17T19:42:22.476Z,11.66
2023-02-17T19:46:20.347Z,12.27
2023-02-17T19:50:18.337Z,13.19
2023-02-17T19:54:17.349Z,13.20
2023-02-17T19:58:15.317Z,13.00
2023-02-17T20:02:13.396Z,13.48
2023-02-17T20:06:11.261Z,13.28
2023-02-17T20:10:09.267Z,13.31
2023-02-17T20:14:07.276Z,13.20
2023-02-17T20:18:05.338Z,13.01
2023-02-17T20:22:03.398Z,12.71
2023-02-17T20:26:01.287Z,12.61
2023-02-17T20:29:59.297Z,13.31
2023-02-17T20:33:57.333Z,13.97
2023-02-17T20:37:55.320Z,14.19
2023-02-17T20:41:54.564Z,14.22
2023-02-17T20:45:52.396Z,14.37
2023-02-17T20:49:54.799Z,14.35
2023-02-17T20:53:55.733Z,14.43
2023-02-17T20:57:54.331Z,12.83
2023-02-17T21:01:52.409Z,12.66
2023-02-17T21:05:51.225Z,12.96
2023-02-17T21:09:50.283Z,13.07
2023-02-17T21:13:48.884Z,13.26
2023-02-17T21:17:46.416Z,13.69
2023-02-17T21:21:45.577Z,13.69
2023-02-17T21:25:43.191Z,13.81
2023-02-17T21:29:41.262Z,13.53
2023-02-17T21:33:39.197Z,13.75
2023-02-17T21:37:37.174Z,13.26
2023-02-17T21:41:39.165Z,13.30
2023-02-17T21:45:38.249Z,14.13
2023-02-17T21:49:36.134Z,15.30
2023-02-17T21:53:34.174Z,13.67
2023-02-17T21:57:32.102Z,14.12
2023-02-17T22:01:30.133Z,14.97
2023-02-17T22:05:28.145Z,15.74
2023-02-17T22:09:28.184Z,14.09
2023-02-17T22:13:27.178Z,13.95
2023-02-17T22:17:25.253Z,15.05
2023-02-17T22:21:28.155Z,15.70
2023-02-17T22:25:26.227Z,13.86
2023-02-17T22:29:24.178Z,14.44
2023-02-17T22:33:24.178Z,15.45
2023-02-17T22:37:22.077Z,15.76
2023-02-17T22:41:25.197Z,13.67
2023-02-17T22:45:23.189Z,14.22
2023-02-17T22:49:21.166Z,14.94
2023-02-17T22:53:19.091Z,15.22
2023-02-17T22:57:17.133Z,14.85
2023-02-17T23:01:29.132Z,14.85
2023-02-17T23:05:27.057Z,14.67
2023-02-17T23:09:30.043Z,14.27
2023-02-17T23:13:28.041Z,14.46
2023-02-17T23:17:27.113Z,14.72
2023-02-17T23:21:28.056Z,14.82
2023-02-17T23:25:26.237Z,14.40
2023-02-17T23:29:24.121Z,14.39
2023-02-17T23:33:23.114Z,14.37
2023-02-17T23:37:21.054Z,14.24
2023-02-17T23:41:18.977Z,14.46
2023-02-17T23:45:17.077Z,14.80
2023-02-17T23:49:15.019Z,15.45
2023-02-17T23:53:13.013Z,13.73
2023-02-17T23:57:13.044Z,13.40
